UAE370 OMDB-VTBS
Flight info
| Callsign | UAE370 |
|---|---|
| Flight time | N/A |
| Altitude | 39000 |
| Route | IVURO1F IVURO M677 LALDO B505 NADSO B524 ALPOR M504 GOGUM/N0488F410 M504 TELEM A791 BPL T1 BBS N895 BETNO P646 TARED WILLA1C |
| Aircraft | A359/H-SDE2E3GHIJ3J4J5LM1ORWXY/LB1D1 |
Departure
| Time | 2026-04-25 01:04 |
|---|---|
| Airport | Dubai International Airport (OMDB) |
Arrival
| Time | N/A |
|---|---|
| Airport | Suvarnabhumi Airport (VTBS) |
| Time | Latitude | Longitude | Altitude | Speed | Heading |
|---|---|---|---|---|---|
| 2026-04-25 00:06 | 25.24805 | 55.36440 | 27 ft | 0 kts | 211° |
| 2026-04-25 00:44 | 25.24819 | 55.36449 | 26 ft | 4 kts | 211° |
| 2026-04-25 00:44 | 25.24842 | 55.36465 | 26 ft | 4 kts | 212° |
| 2026-04-25 00:45 | 25.24862 | 55.36479 | 26 ft | 4 kts | 207° |
| 2026-04-25 00:45 | 25.24884 | 55.36484 | 26 ft | 4 kts | 149° |
| 2026-04-25 00:45 | 25.24902 | 55.36464 | 25 ft | 4 kts | 121° |
| 2026-04-25 00:45 | 25.24908 | 55.36451 | 27 ft | 1 kts | 122° |
| 2026-04-25 00:46 | 25.24909 | 55.36450 | 27 ft | 0 kts | 122° |
| 2026-04-25 00:47 | 25.24913 | 55.36442 | 26 ft | 3 kts | 134° |
| 2026-04-25 00:48 | 25.24928 | 55.36430 | 26 ft | 3 kts | 173° |
| 2026-04-25 00:48 | 25.24947 | 55.36432 | 26 ft | 3 kts | 212° |
| 2026-04-25 00:48 | 25.24960 | 55.36446 | 26 ft | 3 kts | 251° |
| 2026-04-25 00:48 | 25.24963 | 55.36466 | 24 ft | 3 kts | 277° |
| 2026-04-25 00:49 | 25.24959 | 55.36484 | 25 ft | 2 kts | 291° |
| 2026-04-25 00:49 | 25.24952 | 55.36501 | 26 ft | 2 kts | 299° |
| 2026-04-25 00:49 | 25.24943 | 55.36517 | 26 ft | 3 kts | 319° |
| 2026-04-25 00:49 | 25.24928 | 55.36527 | 25 ft | 2 kts | 339° |
| 2026-04-25 00:50 | 25.24914 | 55.36533 | 26 ft | 2 kts | 339° |
| 2026-04-25 00:50 | 25.24899 | 55.36540 | 26 ft | 2 kts | 339° |
| 2026-04-25 00:50 | 25.24884 | 55.36546 | 25 ft | 2 kts | 339° |
| 2026-04-25 00:50 | 25.24869 | 55.36552 | 25 ft | 2 kts | 339° |
| 2026-04-25 00:51 | 25.24853 | 55.36560 | 26 ft | 3 kts | 316° |
| 2026-04-25 00:51 | 25.24841 | 55.36573 | 25 ft | 3 kts | 300° |
| 2026-04-25 00:51 | 25.24839 | 55.36575 | 26 ft | 0 kts | 298° |
| 2026-04-25 00:54 | 25.24849 | 55.36555 | 27 ft | 6 kts | 300° |
| 2026-04-25 00:55 | 25.24882 | 55.36497 | 27 ft | 12 kts | 302° |
| 2026-04-25 00:55 | 25.24937 | 55.36403 | 27 ft | 17 kts | 303° |
| 2026-04-25 00:55 | 25.25008 | 55.36276 | 27 ft | 22 kts | 302° |
| 2026-04-25 00:55 | 25.25094 | 55.36122 | 27 ft | 26 kts | 302° |
| 2026-04-25 00:56 | 25.25194 | 55.35944 | 27 ft | 28 kts | 302° |
| 2026-04-25 00:56 | 25.25296 | 55.35760 | 27 ft | 28 kts | 303° |
| 2026-04-25 00:56 | 25.25404 | 55.35572 | 27 ft | 29 kts | 302° |
| 2026-04-25 00:56 | 25.25512 | 55.35381 | 27 ft | 29 kts | 302° |
| 2026-04-25 00:57 | 25.25591 | 55.35240 | 27 ft | 19 kts | 302° |
| 2026-04-25 00:57 | 25.25661 | 55.35160 | 27 ft | 12 kts | 345° |
| 2026-04-25 00:57 | 25.25738 | 55.35192 | 27 ft | 13 kts | 32° |
| 2026-04-25 00:57 | 25.25819 | 55.35247 | 27 ft | 15 kts | 31° |
| 2026-04-25 00:58 | 25.25910 | 55.35308 | 28 ft | 16 kts | 31° |
| 2026-04-25 00:58 | 25.25991 | 55.35397 | 28 ft | 17 kts | 60° |
| 2026-04-25 00:58 | 25.26001 | 55.35521 | 28 ft | 17 kts | 105° |
| 2026-04-25 00:58 | 25.25943 | 55.35638 | 28 ft | 18 kts | 122° |
| 2026-04-25 00:59 | 25.25875 | 55.35760 | 28 ft | 19 kts | 122° |
| 2026-04-25 00:59 | 25.25802 | 55.35888 | 28 ft | 20 kts | 122° |
| 2026-04-25 00:59 | 25.25726 | 55.36024 | 28 ft | 21 kts | 122° |
| 2026-04-25 00:59 | 25.25646 | 55.36165 | 29 ft | 22 kts | 122° |
| 2026-04-25 01:00 | 25.25563 | 55.36313 | 28 ft | 23 kts | 122° |
| 2026-04-25 01:00 | 25.25474 | 55.36470 | 28 ft | 24 kts | 122° |
| 2026-04-25 01:00 | 25.25382 | 55.36634 | 28 ft | 26 kts | 122° |
| 2026-04-25 01:00 | 25.25286 | 55.36805 | 28 ft | 26 kts | 122° |
| 2026-04-25 01:01 | 25.25188 | 55.36980 | 28 ft | 27 kts | 122° |
| 2026-04-25 01:01 | 25.25088 | 55.37158 | 30 ft | 27 kts | 122° |
| 2026-04-25 01:01 | 25.24986 | 55.37340 | 30 ft | 28 kts | 122° |
| 2026-04-25 01:01 | 25.24884 | 55.37521 | 29 ft | 29 kts | 122° |
| 2026-04-25 01:02 | 25.24785 | 55.37695 | 29 ft | 21 kts | 122° |
| 2026-04-25 01:02 | 25.24711 | 55.37828 | 29 ft | 16 kts | 122° |
| 2026-04-25 01:02 | 25.24663 | 55.37919 | 29 ft | 12 kts | 105° |
| 2026-04-25 01:02 | 25.24701 | 55.37981 | 29 ft | 10 kts | 31° |
| 2026-04-25 01:03 | 25.24763 | 55.38020 | 31 ft | 10 kts | 25° |
| 2026-04-25 01:03 | 25.24822 | 55.37997 | 31 ft | 10 kts | 305° |
| 2026-04-25 01:03 | 25.24876 | 55.37902 | 32 ft | 32 kts | 302° |
| 2026-04-25 01:03 | 25.25122 | 55.37458 | 33 ft | 101 kts | 301° |
| 2026-04-25 01:04 | 25.25597 | 55.36601 | 31 ft | 158 kts | 302° |
| 2026-04-25 01:04 | 25.26226 | 55.35421 | 296 ft | 186 kts | 298° |
| 2026-04-25 01:04 | 25.26879 | 55.34216 | 1092 ft | 176 kts | 301° |
| 2026-04-25 01:04 | 25.27538 | 55.33052 | 1713 ft | 185 kts | 302° |
| 2026-04-25 01:05 | 25.28257 | 55.31778 | 1954 ft | 206 kts | 302° |
| 2026-04-25 01:05 | 25.29117 | 55.30415 | 2252 ft | 224 kts | 313° |
| 2026-04-25 01:05 | 25.30463 | 55.29552 | 2781 ft | 230 kts | 348° |
| 2026-04-25 01:05 | 25.32060 | 55.29456 | 3506 ft | 231 kts | 360° |
| 2026-04-25 01:06 | 25.33674 | 55.29512 | 4156 ft | 235 kts | 0° |
| 2026-04-25 01:06 | 25.35325 | 55.29574 | 4801 ft | 239 kts | 360° |
| 2026-04-25 01:06 | 25.36995 | 55.29632 | 5447 ft | 242 kts | 359° |
| 2026-04-25 01:06 | 25.38689 | 55.29740 | 6093 ft | 247 kts | 6° |
| 2026-04-25 01:07 | 25.40291 | 55.30470 | 6632 ft | 258 kts | 36° |
| 2026-04-25 01:07 | 25.41588 | 55.31947 | 6948 ft | 280 kts | 49° |
| 2026-04-25 01:07 | 25.42831 | 55.33681 | 7001 ft | 293 kts | 50° |
| 2026-04-25 01:07 | 25.44127 | 55.35510 | 7007 ft | 316 kts | 50° |
| 2026-04-25 01:08 | 25.45566 | 55.37510 | 7004 ft | 346 kts | 50° |
| 2026-04-25 01:08 | 25.47108 | 55.39637 | 7369 ft | 356 kts | 50° |
| 2026-04-25 01:08 | 25.48643 | 55.41749 | 8309 ft | 347 kts | 50° |
| 2026-04-25 01:08 | 25.50107 | 55.43824 | 9388 ft | 337 kts | 51° |
| 2026-04-25 01:09 | 25.51516 | 55.45866 | 10330 ft | 333 kts | 51° |
| 2026-04-25 01:09 | 25.52737 | 55.48106 | 10724 ft | 349 kts | 69° |
| 2026-04-25 01:09 | 25.53114 | 55.50802 | 10976 ft | 366 kts | 94° |
| 2026-04-25 01:09 | 25.52460 | 55.53557 | 11254 ft | 377 kts | 117° |
| 2026-04-25 01:10 | 25.50993 | 55.55938 | 11748 ft | 381 kts | 129° |
| 2026-04-25 01:10 | 25.49364 | 55.58277 | 12320 ft | 386 kts | 128° |
| 2026-04-25 01:10 | 25.47791 | 55.60700 | 12739 ft | 389 kts | 126° |
| 2026-04-25 01:10 | 25.46268 | 55.63183 | 12878 ft | 391 kts | 124° |
| 2026-04-25 01:11 | 25.44772 | 55.65706 | 12884 ft | 392 kts | 124° |
| 2026-04-25 01:11 | 25.43320 | 55.68262 | 12881 ft | 393 kts | 120° |
| 2026-04-25 01:11 | 25.42283 | 55.71057 | 12887 ft | 394 kts | 106° |
| 2026-04-25 01:11 | 25.41604 | 55.74043 | 12883 ft | 395 kts | 103° |
| 2026-04-25 01:12 | 25.40995 | 55.76967 | 12883 ft | 395 kts | 103° |
| 2026-04-25 01:12 | 25.40380 | 55.79927 | 12894 ft | 395 kts | 103° |
| 2026-04-25 01:12 | 25.39756 | 55.82879 | 12894 ft | 395 kts | 104° |
| 2026-04-25 01:12 | 25.39124 | 55.85847 | 12894 ft | 395 kts | 104° |
| 2026-04-25 01:13 | 25.38494 | 55.88803 | 12891 ft | 395 kts | 103° |
| 2026-04-25 01:13 | 25.37863 | 55.91757 | 12894 ft | 394 kts | 103° |
| 2026-04-25 01:13 | 25.37233 | 55.94704 | 12894 ft | 393 kts | 103° |
| 2026-04-25 01:13 | 25.36606 | 55.97648 | 12893 ft | 393 kts | 103° |
| 2026-04-25 01:14 | 25.35975 | 56.00588 | 12889 ft | 393 kts | 103° |
| 2026-04-25 01:14 | 25.35345 | 56.03522 | 12887 ft | 393 kts | 103° |
| 2026-04-25 01:14 | 25.34916 | 56.05514 | 12886 ft | 393 kts | 103° |
| 2026-04-25 01:14 | 25.34292 | 56.08415 | 12884 ft | 393 kts | 103° |
| 2026-04-25 01:15 | 25.33658 | 56.11360 | 12874 ft | 393 kts | 103° |
| 2026-04-25 01:15 | 25.33034 | 56.14296 | 12871 ft | 393 kts | 103° |
| 2026-04-25 01:15 | 25.32569 | 56.17273 | 12869 ft | 393 kts | 98° |
| 2026-04-25 01:15 | 25.32257 | 56.20275 | 12906 ft | 394 kts | 95° |
| 2026-04-25 01:16 | 25.32020 | 56.23309 | 13314 ft | 397 kts | 95° |
| 2026-04-25 01:16 | 25.31805 | 56.26360 | 13953 ft | 397 kts | 94° |
| 2026-04-25 01:16 | 25.31587 | 56.29418 | 14472 ft | 401 kts | 94° |
| 2026-04-25 01:16 | 25.31356 | 56.32504 | 14920 ft | 406 kts | 95° |
| 2026-04-25 01:17 | 25.31109 | 56.35638 | 15387 ft | 411 kts | 95° |
| 2026-04-25 01:17 | 25.30851 | 56.38797 | 15893 ft | 414 kts | 95° |
| 2026-04-25 01:17 | 25.30613 | 56.41991 | 16392 ft | 418 kts | 93° |
| 2026-04-25 01:17 | 25.30482 | 56.45212 | 16875 ft | 422 kts | 91° |
| 2026-04-25 01:18 | 25.30411 | 56.48468 | 17366 ft | 425 kts | 90° |
| 2026-04-25 01:18 | 25.30356 | 56.51757 | 17847 ft | 429 kts | 90° |
| 2026-04-25 01:18 | 25.30294 | 56.55069 | 18297 ft | 433 kts | 90° |
| 2026-04-25 01:18 | 25.30075 | 56.58383 | 18806 ft | 434 kts | 97° |
| 2026-04-25 01:19 | 25.29400 | 56.61653 | 19225 ft | 438 kts | 107° |
| 2026-04-25 01:19 | 25.28407 | 56.64847 | 19664 ft | 441 kts | 110° |
| 2026-04-25 01:19 | 25.27278 | 56.68010 | 20128 ft | 444 kts | 112° |
| 2026-04-25 01:19 | 25.26074 | 56.71167 | 20621 ft | 447 kts | 114° |
| 2026-04-25 01:20 | 25.24837 | 56.74335 | 21078 ft | 450 kts | 114° |
| 2026-04-25 01:20 | 25.23593 | 56.77518 | 21554 ft | 453 kts | 114° |
| 2026-04-25 01:20 | 25.22343 | 56.80740 | 22031 ft | 457 kts | 114° |
| 2026-04-25 01:20 | 25.21111 | 56.83942 | 22477 ft | 460 kts | 114° |
| 2026-04-25 01:21 | 25.19862 | 56.87207 | 22900 ft | 464 kts | 114° |
| 2026-04-25 01:21 | 25.18609 | 56.90498 | 23337 ft | 468 kts | 114° |
| 2026-04-25 01:21 | 25.17344 | 56.93821 | 23767 ft | 471 kts | 114° |
| 2026-04-25 01:21 | 25.16070 | 56.97171 | 24175 ft | 474 kts | 114° |
| 2026-04-25 01:22 | 25.14787 | 57.00538 | 24622 ft | 476 kts | 114° |
| 2026-04-25 01:22 | 25.13504 | 57.03905 | 25101 ft | 478 kts | 114° |
| 2026-04-25 01:22 | 25.12209 | 57.07297 | 25531 ft | 481 kts | 114° |
| 2026-04-25 01:22 | 25.10902 | 57.10717 | 25969 ft | 484 kts | 114° |
| 2026-04-25 01:23 | 25.09589 | 57.14149 | 26408 ft | 488 kts | 114° |
| 2026-04-25 01:23 | 25.08259 | 57.17622 | 26824 ft | 491 kts | 114° |
| 2026-04-25 01:23 | 25.06925 | 57.21103 | 27241 ft | 494 kts | 115° |
| 2026-04-25 01:23 | 25.05581 | 57.24608 | 27696 ft | 497 kts | 115° |
| 2026-04-25 01:24 | 25.04230 | 57.28126 | 28111 ft | 500 kts | 115° |
| 2026-04-25 01:24 | 25.02869 | 57.31670 | 28530 ft | 503 kts | 115° |
| 2026-04-25 01:24 | 25.01499 | 57.35234 | 28935 ft | 506 kts | 115° |
| 2026-04-25 01:24 | 25.00137 | 57.38774 | 29336 ft | 509 kts | 115° |
| 2026-04-25 01:25 | 24.98745 | 57.42387 | 29703 ft | 512 kts | 115° |
| 2026-04-25 01:25 | 24.97352 | 57.46001 | 30100 ft | 514 kts | 115° |
| 2026-04-25 01:25 | 24.95952 | 57.49632 | 30396 ft | 517 kts | 115° |
| 2026-04-25 01:25 | 24.94539 | 57.53291 | 30679 ft | 520 kts | 115° |
| 2026-04-25 01:26 | 24.93119 | 57.56966 | 30980 ft | 522 kts | 115° |
| 2026-04-25 01:26 | 24.91694 | 57.60651 | 31257 ft | 525 kts | 115° |
| 2026-04-25 01:26 | 24.90256 | 57.64366 | 31538 ft | 527 kts | 115° |
| 2026-04-25 01:26 | 24.88815 | 57.68087 | 31805 ft | 530 kts | 115° |
| 2026-04-25 01:27 | 24.87361 | 57.71837 | 32084 ft | 531 kts | 115° |
| 2026-04-25 01:27 | 24.85909 | 57.75578 | 32458 ft | 531 kts | 115° |
| 2026-04-25 01:27 | 24.84462 | 57.79312 | 32855 ft | 530 kts | 114° |
| 2026-04-25 01:28 | 24.82316 | 57.87087 | 33665 ft | 529 kts | 104° |
| 2026-04-25 01:28 | 24.81484 | 57.90968 | 34059 ft | 527 kts | 103° |
| 2026-04-25 01:28 | 24.80679 | 57.94904 | 34330 ft | 528 kts | 103° |
| 2026-04-25 01:28 | 24.79887 | 57.98859 | 34590 ft | 528 kts | 103° |
| 2026-04-25 01:29 | 24.79097 | 58.02812 | 34869 ft | 528 kts | 102° |
| 2026-04-25 01:29 | 24.78306 | 58.06754 | 35144 ft | 528 kts | 102° |
| 2026-04-25 01:29 | 24.77509 | 58.10700 | 35416 ft | 528 kts | 102° |
| 2026-04-25 01:29 | 24.76707 | 58.14640 | 35669 ft | 528 kts | 102° |
| 2026-04-25 01:30 | 24.75900 | 58.18588 | 35919 ft | 529 kts | 102° |
| 2026-04-25 01:30 | 24.75092 | 58.22531 | 36145 ft | 529 kts | 102° |
| 2026-04-25 01:30 | 24.74280 | 58.26486 | 36358 ft | 530 kts | 102° |
| 2026-04-25 01:30 | 24.73467 | 58.30437 | 36605 ft | 530 kts | 102° |
| 2026-04-25 01:31 | 24.72652 | 58.34392 | 36861 ft | 529 kts | 102° |
| 2026-04-25 01:31 | 24.71838 | 58.38335 | 37130 ft | 529 kts | 102° |
| 2026-04-25 01:31 | 24.71020 | 58.42295 | 37382 ft | 528 kts | 101° |
| 2026-04-25 01:31 | 24.70207 | 58.46230 | 37611 ft | 528 kts | 101° |
| 2026-04-25 01:32 | 24.69390 | 58.50175 | 37846 ft | 528 kts | 101° |
| 2026-04-25 01:32 | 24.68584 | 58.54058 | 38114 ft | 526 kts | 101° |
| 2026-04-25 01:32 | 24.67769 | 58.57982 | 38343 ft | 526 kts | 101° |
| 2026-04-25 01:32 | 24.66955 | 58.61901 | 38534 ft | 526 kts | 101° |
| 2026-04-25 01:33 | 24.66138 | 58.65826 | 38685 ft | 526 kts | 101° |
| 2026-04-25 01:33 | 24.65320 | 58.69747 | 38817 ft | 527 kts | 101° |
| 2026-04-25 01:33 | 24.63676 | 58.77613 | 38854 ft | 527 kts | 101° |
| 2026-04-25 01:34 | 24.62031 | 58.85462 | 38854 ft | 527 kts | 101° |
| 2026-04-25 01:34 | 24.60383 | 58.93309 | 38853 ft | 527 kts | 101° |
| 2026-04-25 01:35 | 24.58731 | 59.01152 | 38853 ft | 527 kts | 101° |
| 2026-04-25 01:35 | 24.57076 | 59.08985 | 38852 ft | 526 kts | 101° |
| 2026-04-25 01:36 | 24.55426 | 59.16777 | 38854 ft | 526 kts | 101° |
| 2026-04-25 01:36 | 24.53764 | 59.24606 | 38853 ft | 526 kts | 101° |
| 2026-04-25 01:37 | 24.52096 | 59.32436 | 38853 ft | 526 kts | 101° |
| 2026-04-25 01:37 | 24.50423 | 59.40267 | 38854 ft | 527 kts | 101° |
| 2026-04-25 01:38 | 24.48743 | 59.48107 | 38853 ft | 527 kts | 101° |
| 2026-04-25 01:38 | 24.47062 | 59.55933 | 38856 ft | 527 kts | 101° |
| 2026-04-25 01:39 | 24.45371 | 59.63783 | 38857 ft | 527 kts | 101° |
| 2026-04-25 01:39 | 24.43677 | 59.71627 | 38852 ft | 528 kts | 101° |
| 2026-04-25 01:40 | 24.41990 | 59.79417 | 38853 ft | 528 kts | 101° |
| 2026-04-25 01:40 | 24.40288 | 59.87259 | 38854 ft | 528 kts | 101° |
| 2026-04-25 01:41 | 24.38582 | 59.95097 | 38856 ft | 528 kts | 101° |
| 2026-04-25 01:41 | 24.36874 | 60.02926 | 38856 ft | 527 kts | 101° |
| 2026-04-25 01:42 | 24.35160 | 60.10758 | 38856 ft | 528 kts | 101° |
| 2026-04-25 01:42 | 24.33457 | 60.18531 | 38857 ft | 527 kts | 102° |
| 2026-04-25 01:43 | 24.31733 | 60.26375 | 38856 ft | 525 kts | 102° |
| 2026-04-25 01:43 | 24.30031 | 60.34098 | 38854 ft | 524 kts | 102° |
| 2026-04-25 01:44 | 24.28318 | 60.41854 | 38856 ft | 523 kts | 102° |
| 2026-04-25 01:44 | 24.26603 | 60.49603 | 38855 ft | 522 kts | 102° |
| 2026-04-25 01:45 | 24.24889 | 60.57325 | 38859 ft | 520 kts | 102° |
| 2026-04-25 01:45 | 24.23177 | 60.65016 | 38859 ft | 519 kts | 102° |
| 2026-04-25 01:46 | 24.21459 | 60.72715 | 38859 ft | 520 kts | 102° |
| 2026-04-25 01:46 | 24.19757 | 60.80356 | 38859 ft | 518 kts | 102° |
| 2026-04-25 01:47 | 24.18041 | 60.88025 | 38859 ft | 518 kts | 102° |
| 2026-04-25 01:47 | 24.16321 | 60.95688 | 38853 ft | 517 kts | 102° |
| 2026-04-25 01:48 | 24.14600 | 61.03345 | 38860 ft | 517 kts | 102° |
| 2026-04-25 01:48 | 24.12879 | 61.10982 | 38862 ft | 515 kts | 102° |
| 2026-04-25 01:49 | 24.11173 | 61.18538 | 38864 ft | 514 kts | 102° |
| 2026-04-25 01:49 | 24.09451 | 61.26145 | 38859 ft | 514 kts | 102° |
| 2026-04-25 01:50 | 24.07927 | 61.33778 | 38866 ft | 513 kts | 94° |
| 2026-04-25 01:50 | 24.07305 | 61.41530 | 38861 ft | 511 kts | 92° |
| 2026-04-25 01:51 | 24.06846 | 61.49288 | 38864 ft | 510 kts | 91° |
| 2026-04-25 01:51 | 24.06406 | 61.57047 | 38864 ft | 510 kts | 92° |
| 2026-04-25 01:52 | 24.05950 | 61.64800 | 38864 ft | 510 kts | 92° |
| 2026-04-25 01:52 | 24.05480 | 61.72555 | 38862 ft | 510 kts | 92° |
| 2026-04-25 01:53 | 24.05007 | 61.80254 | 38862 ft | 510 kts | 92° |
| 2026-04-25 01:53 | 24.04528 | 61.88010 | 38862 ft | 510 kts | 92° |
| 2026-04-25 01:54 | 24.04045 | 61.95763 | 38870 ft | 510 kts | 92° |
| 2026-04-25 01:54 | 24.03558 | 62.03507 | 38869 ft | 510 kts | 92° |
| 2026-04-25 01:55 | 24.03068 | 62.11248 | 38865 ft | 510 kts | 92° |
| 2026-04-25 01:55 | 24.02575 | 62.18985 | 38868 ft | 510 kts | 92° |
| 2026-04-25 01:56 | 24.02076 | 62.26729 | 38863 ft | 509 kts | 92° |
| 2026-04-25 01:56 | 24.01580 | 62.34391 | 38868 ft | 508 kts | 92° |
| 2026-04-25 01:57 | 24.00823 | 62.45959 | 38860 ft | 508 kts | 92° |
| 2026-04-25 01:58 | 24.00313 | 62.53669 | 38866 ft | 508 kts | 92° |
| 2026-04-25 01:58 | 23.99886 | 62.60081 | 38864 ft | 508 kts | 92° |
| 2026-04-25 01:59 | 23.99370 | 62.67791 | 38867 ft | 508 kts | 92° |
| 2026-04-25 01:59 | 23.98849 | 62.75501 | 38867 ft | 508 kts | 92° |
| 2026-04-25 02:00 | 23.98325 | 62.83214 | 38873 ft | 508 kts | 92° |
| 2026-04-25 02:00 | 23.97796 | 62.90936 | 38869 ft | 509 kts | 92° |
| 2026-04-25 02:01 | 23.97265 | 62.98620 | 38867 ft | 510 kts | 92° |
| 2026-04-25 02:01 | 23.96727 | 63.06351 | 38871 ft | 510 kts | 92° |
| 2026-04-25 02:02 | 23.96186 | 63.14084 | 38869 ft | 510 kts | 92° |
| 2026-04-25 02:02 | 23.95639 | 63.21830 | 38870 ft | 511 kts | 92° |
| 2026-04-25 02:03 | 23.95088 | 63.29582 | 38870 ft | 511 kts | 92° |
| 2026-04-25 02:03 | 23.94534 | 63.37335 | 38870 ft | 512 kts | 92° |
| 2026-04-25 02:04 | 23.93978 | 63.45045 | 38872 ft | 512 kts | 92° |
| 2026-04-25 02:04 | 23.93415 | 63.52805 | 38872 ft | 512 kts | 92° |
| 2026-04-25 02:05 | 23.92847 | 63.60571 | 38877 ft | 513 kts | 92° |
| 2026-04-25 02:05 | 23.92275 | 63.68337 | 38878 ft | 513 kts | 92° |
| 2026-04-25 02:06 | 23.91699 | 63.76112 | 38880 ft | 513 kts | 93° |
| 2026-04-25 02:06 | 23.91119 | 63.83891 | 38878 ft | 513 kts | 93° |
| 2026-04-25 02:07 | 23.90535 | 63.91665 | 38878 ft | 513 kts | 93° |
| 2026-04-25 02:07 | 23.89946 | 63.99441 | 38882 ft | 513 kts | 93° |
| 2026-04-25 02:08 | 23.89354 | 64.07216 | 38880 ft | 513 kts | 93° |
| 2026-04-25 02:08 | 23.88762 | 64.14944 | 38881 ft | 513 kts | 93° |
| 2026-04-25 02:09 | 23.88162 | 64.22719 | 38881 ft | 513 kts | 93° |
| 2026-04-25 02:09 | 23.87557 | 64.30508 | 38881 ft | 513 kts | 93° |
| 2026-04-25 02:10 | 23.86949 | 64.38285 | 38882 ft | 513 kts | 93° |
| 2026-04-25 02:10 | 23.86338 | 64.46050 | 38884 ft | 513 kts | 93° |
| 2026-04-25 02:11 | 23.85722 | 64.53823 | 38882 ft | 513 kts | 93° |
| 2026-04-25 02:11 | 23.85104 | 64.61588 | 38884 ft | 513 kts | 93° |
| 2026-04-25 02:12 | 23.84481 | 64.69343 | 38886 ft | 513 kts | 93° |
| 2026-04-25 02:12 | 23.83859 | 64.77056 | 38884 ft | 513 kts | 93° |
| 2026-04-25 02:13 | 23.83406 | 64.84827 | 38885 ft | 512 kts | 88° |
| 2026-04-25 02:13 | 23.83388 | 64.92601 | 38883 ft | 511 kts | 87° |
| 2026-04-25 02:14 | 23.83442 | 65.00371 | 38885 ft | 511 kts | 87° |
| 2026-04-25 02:14 | 23.83499 | 65.08096 | 38884 ft | 510 kts | 87° |
| 2026-04-25 02:15 | 23.83544 | 65.15849 | 38885 ft | 510 kts | 87° |
| 2026-04-25 02:15 | 23.83581 | 65.23611 | 38889 ft | 510 kts | 88° |
| 2026-04-25 02:16 | 23.83612 | 65.31351 | 38886 ft | 510 kts | 88° |
| 2026-04-25 02:16 | 23.83640 | 65.39091 | 38887 ft | 508 kts | 88° |
| 2026-04-25 02:17 | 23.83664 | 65.46760 | 38886 ft | 508 kts | 88° |
| 2026-04-25 02:17 | 23.83685 | 65.54467 | 38886 ft | 508 kts | 88° |
| 2026-04-25 02:18 | 23.83701 | 65.62187 | 38890 ft | 508 kts | 88° |
| 2026-04-25 02:18 | 23.83714 | 65.69907 | 38886 ft | 508 kts | 88° |
| 2026-04-25 02:19 | 23.83723 | 65.77620 | 38886 ft | 508 kts | 88° |
| 2026-04-25 02:19 | 23.83728 | 65.85347 | 38887 ft | 508 kts | 88° |
| 2026-04-25 02:20 | 23.83729 | 65.93048 | 38887 ft | 508 kts | 88° |
| 2026-04-25 02:20 | 23.83727 | 66.00791 | 38886 ft | 508 kts | 88° |
| 2026-04-25 02:21 | 23.83720 | 66.08497 | 38886 ft | 508 kts | 88° |
| 2026-04-25 02:21 | 23.83710 | 66.16226 | 38884 ft | 508 kts | 88° |
| 2026-04-25 02:22 | 23.83696 | 66.23888 | 38884 ft | 508 kts | 88° |
| 2026-04-25 02:22 | 23.83678 | 66.31600 | 38886 ft | 508 kts | 88° |
| 2026-04-25 02:23 | 23.83656 | 66.39312 | 38889 ft | 507 kts | 88° |
| 2026-04-25 02:23 | 23.83630 | 66.47020 | 38889 ft | 507 kts | 88° |
| 2026-04-25 02:24 | 23.83601 | 66.54724 | 38886 ft | 507 kts | 88° |
| 2026-04-25 02:24 | 23.83568 | 66.62441 | 38887 ft | 507 kts | 88° |
| 2026-04-25 02:25 | 23.83530 | 66.70144 | 38886 ft | 507 kts | 88° |
| 2026-04-25 02:25 | 23.83490 | 66.77847 | 38887 ft | 507 kts | 88° |
| 2026-04-25 02:26 | 23.83445 | 66.85559 | 38886 ft | 507 kts | 88° |
| 2026-04-25 02:26 | 23.83396 | 66.93257 | 38886 ft | 507 kts | 88° |
| 2026-04-25 02:27 | 23.83623 | 67.00933 | 38889 ft | 503 kts | 79° |
| 2026-04-25 02:27 | 23.84724 | 67.08471 | 38889 ft | 502 kts | 77° |
| 2026-04-25 02:28 | 23.85966 | 67.15932 | 38887 ft | 502 kts | 77° |
| 2026-04-25 02:28 | 23.87232 | 67.23436 | 38893 ft | 502 kts | 77° |
| 2026-04-25 02:29 | 23.88484 | 67.30957 | 38889 ft | 503 kts | 77° |
| 2026-04-25 02:29 | 23.89721 | 67.38475 | 38889 ft | 503 kts | 77° |
| 2026-04-25 02:30 | 23.90953 | 67.46000 | 38888 ft | 503 kts | 77° |
| 2026-04-25 02:30 | 23.92182 | 67.53527 | 38886 ft | 503 kts | 77° |
| 2026-04-25 02:31 | 23.93407 | 67.61049 | 38888 ft | 503 kts | 77° |
| 2026-04-25 02:31 | 23.94627 | 67.68567 | 38884 ft | 502 kts | 77° |
| 2026-04-25 02:32 | 23.95844 | 67.76088 | 38883 ft | 502 kts | 77° |
| 2026-04-25 02:32 | 23.97058 | 67.83616 | 38881 ft | 502 kts | 77° |
| 2026-04-25 02:33 | 23.98267 | 67.91139 | 38881 ft | 502 kts | 77° |
| 2026-04-25 02:33 | 23.99475 | 67.98674 | 38881 ft | 502 kts | 77° |
| 2026-04-25 02:34 | 24.00676 | 68.06197 | 38878 ft | 502 kts | 77° |
| 2026-04-25 02:34 | 24.01868 | 68.13685 | 38878 ft | 502 kts | 77° |
| 2026-04-25 02:35 | 24.03064 | 68.21218 | 38874 ft | 502 kts | 78° |
| 2026-04-25 02:35 | 24.04253 | 68.28738 | 38873 ft | 502 kts | 78° |
| 2026-04-25 02:36 | 24.05439 | 68.36259 | 38874 ft | 501 kts | 78° |
| 2026-04-25 02:36 | 24.06622 | 68.43788 | 38875 ft | 502 kts | 78° |
| 2026-04-25 02:37 | 24.07801 | 68.51315 | 38875 ft | 502 kts | 78° |
| 2026-04-25 02:37 | 24.08977 | 68.58846 | 38876 ft | 503 kts | 78° |
| 2026-04-25 02:38 | 24.10143 | 68.66344 | 38875 ft | 503 kts | 78° |
| 2026-04-25 02:38 | 24.11309 | 68.73899 | 38874 ft | 503 kts | 78° |
| 2026-04-25 02:39 | 24.11675 | 68.81579 | 38879 ft | 506 kts | 88° |
| 2026-04-25 02:39 | 24.11613 | 68.89283 | 38881 ft | 507 kts | 89° |
| 2026-04-25 02:40 | 24.11478 | 68.97007 | 38881 ft | 508 kts | 89° |
| 2026-04-25 02:40 | 24.11346 | 69.04730 | 38881 ft | 508 kts | 89° |
| 2026-04-25 02:41 | 24.11222 | 69.12466 | 38881 ft | 508 kts | 89° |
| 2026-04-25 02:41 | 24.11100 | 69.20210 | 38884 ft | 508 kts | 89° |
| 2026-04-25 02:42 | 24.10974 | 69.27952 | 38883 ft | 508 kts | 89° |
| 2026-04-25 02:42 | 24.10845 | 69.35635 | 38884 ft | 508 kts | 89° |
| 2026-04-25 02:43 | 24.10711 | 69.43378 | 38884 ft | 508 kts | 89° |
| 2026-04-25 02:43 | 24.10596 | 69.49816 | 38884 ft | 508 kts | 89° |
| 2026-04-25 02:44 | 24.10455 | 69.57560 | 38887 ft | 508 kts | 89° |
| 2026-04-25 02:44 | 24.10310 | 69.65286 | 38892 ft | 508 kts | 89° |
| 2026-04-25 02:45 | 24.10161 | 69.73008 | 38889 ft | 508 kts | 89° |
| 2026-04-25 02:45 | 24.10008 | 69.80736 | 38889 ft | 508 kts | 89° |
| 2026-04-25 02:46 | 24.09852 | 69.88457 | 38889 ft | 507 kts | 90° |
| 2026-04-25 02:46 | 24.09691 | 69.96170 | 38889 ft | 505 kts | 90° |
| 2026-04-25 02:47 | 24.09527 | 70.03854 | 38889 ft | 505 kts | 90° |
| 2026-04-25 02:47 | 24.09360 | 70.11543 | 38889 ft | 505 kts | 90° |
| 2026-04-25 02:48 | 24.09189 | 70.19231 | 38890 ft | 505 kts | 90° |
| 2026-04-25 02:48 | 24.09013 | 70.26912 | 38892 ft | 503 kts | 90° |
| 2026-04-25 02:49 | 24.08835 | 70.34566 | 38893 ft | 503 kts | 90° |
| 2026-04-25 02:49 | 24.08654 | 70.42168 | 38895 ft | 503 kts | 90° |
| 2026-04-25 02:50 | 24.08469 | 70.49801 | 38895 ft | 503 kts | 90° |
| 2026-04-25 02:50 | 24.08279 | 70.57469 | 38897 ft | 503 kts | 90° |
| 2026-04-25 02:51 | 24.08085 | 70.65147 | 38889 ft | 505 kts | 90° |
| 2026-04-25 02:51 | 24.07887 | 70.72834 | 38892 ft | 505 kts | 90° |
| 2026-04-25 02:52 | 24.07685 | 70.80512 | 38892 ft | 505 kts | 90° |
| 2026-04-25 02:52 | 24.07479 | 70.88199 | 38898 ft | 505 kts | 90° |
| 2026-04-25 02:53 | 24.07270 | 70.95903 | 38890 ft | 507 kts | 90° |
| 2026-04-25 02:53 | 24.07059 | 71.03581 | 38889 ft | 508 kts | 90° |
| 2026-04-25 02:54 | 24.06842 | 71.11303 | 38889 ft | 508 kts | 91° |
| 2026-04-25 02:54 | 24.06619 | 71.19080 | 38890 ft | 508 kts | 91° |
| 2026-04-25 02:55 | 24.06395 | 71.26755 | 38889 ft | 508 kts | 91° |
| 2026-04-25 02:55 | 24.06167 | 71.34491 | 38889 ft | 508 kts | 91° |
| 2026-04-25 02:56 | 24.05935 | 71.42215 | 38892 ft | 508 kts | 91° |
| 2026-04-25 02:56 | 24.05699 | 71.49940 | 38892 ft | 508 kts | 91° |
| 2026-04-25 02:57 | 24.05459 | 71.57672 | 38891 ft | 508 kts | 91° |
| 2026-04-25 02:57 | 24.05216 | 71.65358 | 38892 ft | 509 kts | 91° |
| 2026-04-25 02:58 | 24.04968 | 71.73091 | 38892 ft | 509 kts | 91° |
| 2026-04-25 02:58 | 24.04716 | 71.80827 | 38892 ft | 509 kts | 91° |
| 2026-04-25 02:59 | 24.04460 | 71.88562 | 38892 ft | 509 kts | 91° |
| 2026-04-25 02:59 | 24.04201 | 71.96295 | 38892 ft | 508 kts | 91° |
| 2026-04-25 03:00 | 24.03936 | 72.04048 | 38894 ft | 508 kts | 91° |
| 2026-04-25 03:00 | 24.03670 | 72.11735 | 38900 ft | 509 kts | 91° |
| 2026-04-25 03:01 | 24.03398 | 72.19483 | 38899 ft | 509 kts | 91° |
| 2026-04-25 03:01 | 24.03123 | 72.27216 | 38903 ft | 509 kts | 92° |
| 2026-04-25 03:02 | 24.02844 | 72.34950 | 38903 ft | 509 kts | 92° |
| 2026-04-25 03:02 | 24.02561 | 72.42687 | 38906 ft | 509 kts | 92° |
| 2026-04-25 03:03 | 24.02274 | 72.50425 | 38908 ft | 509 kts | 92° |
| 2026-04-25 03:03 | 24.01982 | 72.58181 | 38911 ft | 509 kts | 92° |
| 2026-04-25 03:04 | 24.01690 | 72.65867 | 38908 ft | 508 kts | 92° |
| 2026-04-25 03:04 | 24.01582 | 72.73589 | 38905 ft | 508 kts | 89° |
| 2026-04-25 03:05 | 24.01844 | 72.85176 | 38911 ft | 508 kts | 88° |
| 2026-04-25 03:05 | 24.01979 | 72.92906 | 38911 ft | 508 kts | 89° |
| 2026-04-25 03:06 | 24.02073 | 73.00636 | 38912 ft | 509 kts | 89° |
| 2026-04-25 03:06 | 24.02153 | 73.08384 | 38911 ft | 509 kts | 89° |
| 2026-04-25 03:07 | 24.02230 | 73.16137 | 38916 ft | 509 kts | 89° |
| 2026-04-25 03:07 | 24.02304 | 73.23882 | 38925 ft | 509 kts | 89° |
| 2026-04-25 03:08 | 24.02375 | 73.31583 | 38925 ft | 509 kts | 89° |
| 2026-04-25 03:08 | 24.02443 | 73.39344 | 38927 ft | 510 kts | 89° |
| 2026-04-25 03:09 | 24.02507 | 73.47108 | 38930 ft | 511 kts | 89° |
| 2026-04-25 03:09 | 24.02567 | 73.54871 | 38930 ft | 510 kts | 89° |
| 2026-04-25 03:10 | 24.02623 | 73.62641 | 38930 ft | 511 kts | 89° |
| 2026-04-25 03:10 | 24.02675 | 73.70409 | 38928 ft | 511 kts | 89° |
| 2026-04-25 03:11 | 24.02728 | 73.78201 | 38931 ft | 512 kts | 89° |
| 2026-04-25 03:11 | 24.02773 | 73.86001 | 38930 ft | 512 kts | 89° |
| 2026-04-25 03:12 | 24.02813 | 73.93791 | 38924 ft | 512 kts | 89° |
| 2026-04-25 03:12 | 24.02851 | 74.01593 | 38927 ft | 512 kts | 89° |
| 2026-04-25 03:13 | 24.02886 | 74.09347 | 38933 ft | 512 kts | 89° |
| 2026-04-25 03:13 | 24.02984 | 74.17134 | 38934 ft | 512 kts | 89° |
| 2026-04-25 03:14 | 24.03113 | 74.24932 | 38942 ft | 512 kts | 89° |
| 2026-04-25 03:14 | 24.03232 | 74.32726 | 38941 ft | 512 kts | 89° |
| 2026-04-25 03:15 | 24.03338 | 74.40530 | 38950 ft | 513 kts | 89° |
| 2026-04-25 03:15 | 24.03437 | 74.48345 | 38949 ft | 515 kts | 89° |
| 2026-04-25 03:16 | 24.03533 | 74.56181 | 38949 ft | 515 kts | 89° |
| 2026-04-25 03:16 | 24.03624 | 74.64007 | 38950 ft | 514 kts | 89° |
| 2026-04-25 03:17 | 24.03643 | 74.71787 | 38954 ft | 514 kts | 94° |
| 2026-04-25 03:17 | 24.02318 | 74.79445 | 38952 ft | 513 kts | 106° |
| 2026-04-25 03:18 | 24.00292 | 74.86938 | 38957 ft | 513 kts | 108° |
| 2026-04-25 03:18 | 23.98156 | 74.94389 | 39100 ft | 514 kts | 108° |
| 2026-04-25 03:19 | 23.97087 | 74.98118 | 39309 ft | 513 kts | 108° |
| 2026-04-25 03:19 | 23.96027 | 75.01835 | 39495 ft | 512 kts | 108° |
| 2026-04-25 03:19 | 23.94970 | 75.05560 | 39664 ft | 512 kts | 108° |
| 2026-04-25 03:19 | 23.93917 | 75.09284 | 39772 ft | 514 kts | 108° |
| 2026-04-25 03:20 | 23.91801 | 75.16761 | 40032 ft | 514 kts | 108° |
| 2026-04-25 03:20 | 23.90744 | 75.20490 | 40208 ft | 514 kts | 108° |
| 2026-04-25 03:20 | 23.89688 | 75.24215 | 40371 ft | 513 kts | 108° |
| 2026-04-25 03:21 | 23.88627 | 75.27951 | 40521 ft | 513 kts | 108° |
| 2026-04-25 03:21 | 23.87567 | 75.31682 | 40680 ft | 513 kts | 108° |
| 2026-04-25 03:21 | 23.86523 | 75.35349 | 40812 ft | 512 kts | 108° |
| 2026-04-25 03:21 | 23.85461 | 75.39076 | 40943 ft | 513 kts | 108° |
| 2026-04-25 03:22 | 23.83337 | 75.46520 | 40966 ft | 513 kts | 109° |
| 2026-04-25 03:22 | 23.81209 | 75.53965 | 40962 ft | 513 kts | 109° |
| 2026-04-25 03:23 | 23.79078 | 75.61406 | 40965 ft | 513 kts | 109° |
| 2026-04-25 03:23 | 23.76958 | 75.68790 | 40962 ft | 513 kts | 109° |
| 2026-04-25 03:24 | 23.74822 | 75.76217 | 40962 ft | 513 kts | 109° |
| 2026-04-25 03:24 | 23.72680 | 75.83652 | 40949 ft | 513 kts | 109° |
| 2026-04-25 03:25 | 23.70533 | 75.91090 | 40964 ft | 514 kts | 109° |
| 2026-04-25 03:25 | 23.68378 | 75.98537 | 40954 ft | 514 kts | 109° |
| 2026-04-25 03:26 | 23.66231 | 76.05935 | 40952 ft | 514 kts | 109° |
| 2026-04-25 03:26 | 23.64060 | 76.13362 | 40943 ft | 514 kts | 109° |
| 2026-04-25 03:27 | 23.61880 | 76.20802 | 40946 ft | 514 kts | 109° |
| 2026-04-25 03:27 | 23.59702 | 76.28231 | 40938 ft | 515 kts | 109° |
| 2026-04-25 03:28 | 23.57515 | 76.35677 | 40937 ft | 515 kts | 109° |
| 2026-04-25 03:28 | 23.55346 | 76.43049 | 40933 ft | 515 kts | 109° |
| 2026-04-25 03:29 | 23.53156 | 76.50477 | 40926 ft | 515 kts | 109° |
| 2026-04-25 03:29 | 23.50963 | 76.57903 | 40930 ft | 515 kts | 109° |
| 2026-04-25 03:30 | 23.49119 | 76.64132 | 40934 ft | 515 kts | 110° |
| 2026-04-25 03:30 | 23.46917 | 76.71562 | 40932 ft | 515 kts | 110° |
| 2026-04-25 03:31 | 23.44712 | 76.78984 | 40933 ft | 515 kts | 110° |
| 2026-04-25 03:31 | 23.42516 | 76.86362 | 40933 ft | 515 kts | 110° |
| 2026-04-25 03:32 | 23.40304 | 76.93782 | 40936 ft | 515 kts | 110° |
| 2026-04-25 03:32 | 23.38088 | 77.01199 | 40937 ft | 515 kts | 110° |
| 2026-04-25 03:33 | 23.35866 | 77.08623 | 40944 ft | 515 kts | 110° |
| 2026-04-25 03:33 | 23.33641 | 77.16045 | 40955 ft | 515 kts | 110° |
| 2026-04-25 03:34 | 23.31409 | 77.23474 | 40969 ft | 515 kts | 110° |
| 2026-04-25 03:34 | 23.29192 | 77.30840 | 40966 ft | 516 kts | 110° |
| 2026-04-25 03:35 | 23.26904 | 77.38257 | 40966 ft | 516 kts | 112° |
| 2026-04-25 03:35 | 23.24433 | 77.45579 | 40961 ft | 516 kts | 112° |
| 2026-04-25 03:36 | 23.21932 | 77.52897 | 40943 ft | 516 kts | 112° |
| 2026-04-25 03:36 | 23.19453 | 77.60231 | 40917 ft | 517 kts | 113° |
| 2026-04-25 03:37 | 23.16987 | 77.67569 | 40924 ft | 518 kts | 112° |
| 2026-04-25 03:37 | 23.14512 | 77.74934 | 40910 ft | 518 kts | 112° |
| 2026-04-25 03:38 | 23.12036 | 77.82286 | 40905 ft | 518 kts | 113° |
| 2026-04-25 03:38 | 23.09555 | 77.89640 | 40923 ft | 518 kts | 113° |
| 2026-04-25 03:39 | 23.07070 | 77.96987 | 40898 ft | 518 kts | 113° |
| 2026-04-25 03:39 | 23.04579 | 78.04340 | 40915 ft | 519 kts | 113° |
| 2026-04-25 03:40 | 23.02094 | 78.11664 | 40900 ft | 520 kts | 113° |
| 2026-04-25 03:40 | 22.99589 | 78.19034 | 40894 ft | 519 kts | 113° |
| 2026-04-25 03:41 | 22.97087 | 78.26384 | 40904 ft | 519 kts | 114° |
| 2026-04-25 03:41 | 22.94580 | 78.33736 | 40899 ft | 519 kts | 114° |
| 2026-04-25 03:42 | 22.92066 | 78.41092 | 40909 ft | 520 kts | 114° |
| 2026-04-25 03:42 | 22.89552 | 78.48438 | 40907 ft | 520 kts | 114° |
| 2026-04-25 03:43 | 22.87031 | 78.55792 | 40904 ft | 519 kts | 114° |
| 2026-04-25 03:43 | 22.84510 | 78.63134 | 40907 ft | 519 kts | 114° |
| 2026-04-25 03:44 | 22.81985 | 78.70474 | 40910 ft | 520 kts | 114° |
| 2026-04-25 03:44 | 22.79451 | 78.77827 | 40912 ft | 521 kts | 114° |
| 2026-04-25 03:45 | 22.76913 | 78.85179 | 40920 ft | 521 kts | 114° |
| 2026-04-25 03:45 | 22.74382 | 78.92500 | 40917 ft | 521 kts | 114° |
| 2026-04-25 03:46 | 22.71836 | 78.99852 | 40924 ft | 521 kts | 114° |
| 2026-04-25 03:46 | 22.69285 | 79.07204 | 40930 ft | 522 kts | 114° |
| 2026-04-25 03:47 | 22.66717 | 79.14591 | 40930 ft | 524 kts | 114° |
| 2026-04-25 03:47 | 22.64159 | 79.21938 | 40936 ft | 524 kts | 114° |
| 2026-04-25 03:48 | 22.61585 | 79.29323 | 40934 ft | 524 kts | 114° |
| 2026-04-25 03:48 | 22.59007 | 79.36705 | 40938 ft | 524 kts | 114° |
| 2026-04-25 03:49 | 22.56426 | 79.44086 | 40933 ft | 524 kts | 114° |
| 2026-04-25 03:49 | 22.53855 | 79.51483 | 40932 ft | 526 kts | 114° |
| 2026-04-25 03:50 | 22.51285 | 79.58899 | 40937 ft | 526 kts | 114° |
| 2026-04-25 03:50 | 22.48714 | 79.66301 | 40937 ft | 526 kts | 114° |
| 2026-04-25 03:51 | 22.46133 | 79.73711 | 40932 ft | 526 kts | 114° |
| 2026-04-25 03:51 | 22.43552 | 79.81110 | 40930 ft | 526 kts | 114° |
| 2026-04-25 03:52 | 22.40961 | 79.88520 | 40934 ft | 527 kts | 114° |
| 2026-04-25 03:52 | 22.38364 | 79.95938 | 40930 ft | 528 kts | 114° |
| 2026-04-25 03:53 | 22.35763 | 80.03354 | 40927 ft | 527 kts | 114° |
| 2026-04-25 03:53 | 22.33173 | 80.10728 | 40928 ft | 527 kts | 114° |
| 2026-04-25 03:54 | 22.30561 | 80.18149 | 40928 ft | 527 kts | 115° |
| 2026-04-25 03:54 | 22.27949 | 80.25560 | 40922 ft | 528 kts | 115° |
| 2026-04-25 03:55 | 22.25334 | 80.32967 | 40927 ft | 528 kts | 115° |
| 2026-04-25 03:55 | 22.22714 | 80.40376 | 40928 ft | 528 kts | 115° |
| 2026-04-25 03:56 | 22.20095 | 80.47788 | 40927 ft | 528 kts | 115° |
| 2026-04-25 03:56 | 22.17473 | 80.55189 | 40913 ft | 528 kts | 115° |
| 2026-04-25 03:57 | 22.14842 | 80.62600 | 40926 ft | 528 kts | 115° |
| 2026-04-25 03:57 | 22.12213 | 80.69995 | 40924 ft | 528 kts | 115° |
| 2026-04-25 03:58 | 22.09595 | 80.77348 | 40922 ft | 528 kts | 115° |
| 2026-04-25 03:58 | 22.06954 | 80.84755 | 40921 ft | 528 kts | 115° |
| 2026-04-25 03:59 | 22.04316 | 80.92144 | 40910 ft | 528 kts | 115° |
| 2026-04-25 03:59 | 22.01669 | 80.99541 | 40912 ft | 530 kts | 115° |
| 2026-04-25 04:00 | 21.99013 | 81.06954 | 40903 ft | 530 kts | 115° |
| 2026-04-25 04:00 | 21.96353 | 81.14368 | 40907 ft | 530 kts | 115° |
| 2026-04-25 04:01 | 21.93692 | 81.21772 | 40887 ft | 530 kts | 115° |
| 2026-04-25 04:01 | 21.91023 | 81.29187 | 40886 ft | 530 kts | 115° |
| 2026-04-25 04:02 | 21.88349 | 81.36599 | 40885 ft | 531 kts | 115° |
| 2026-04-25 04:02 | 21.85669 | 81.44018 | 40885 ft | 532 kts | 115° |
| 2026-04-25 04:03 | 21.82987 | 81.51433 | 40878 ft | 532 kts | 115° |
| 2026-04-25 04:03 | 21.80300 | 81.58850 | 40877 ft | 532 kts | 115° |
| 2026-04-25 04:04 | 21.77629 | 81.66273 | 40872 ft | 533 kts | 113° |
| 2026-04-25 04:04 | 21.75387 | 81.73892 | 40879 ft | 535 kts | 110° |
| 2026-04-25 04:05 | 21.73307 | 81.81586 | 40876 ft | 536 kts | 110° |
| 2026-04-25 04:05 | 21.71168 | 81.89257 | 40873 ft | 535 kts | 110° |
| 2026-04-25 04:06 | 21.68974 | 81.96905 | 40875 ft | 535 kts | 111° |
| 2026-04-25 04:06 | 21.66763 | 82.04552 | 40875 ft | 535 kts | 111° |
| 2026-04-25 04:07 | 21.64545 | 82.12190 | 40875 ft | 535 kts | 111° |
| 2026-04-25 04:07 | 21.62323 | 82.19826 | 40873 ft | 535 kts | 111° |
| 2026-04-25 04:08 | 21.60104 | 82.27452 | 40870 ft | 534 kts | 111° |
| 2026-04-25 04:08 | 21.57882 | 82.35077 | 40873 ft | 534 kts | 111° |
| 2026-04-25 04:09 | 21.55659 | 82.42688 | 40876 ft | 534 kts | 111° |
| 2026-04-25 04:09 | 21.53442 | 82.50267 | 40872 ft | 535 kts | 111° |
| 2026-04-25 04:10 | 21.51205 | 82.57898 | 40871 ft | 536 kts | 111° |
| 2026-04-25 04:10 | 21.48964 | 82.65532 | 40882 ft | 535 kts | 111° |
| 2026-04-25 04:11 | 21.45575 | 82.75497 | 40879 ft | 531 kts | 117° |
| 2026-04-25 04:12 | 21.42627 | 82.82775 | 40881 ft | 532 kts | 118° |
| 2026-04-25 04:12 | 21.39710 | 82.90091 | 40873 ft | 533 kts | 117° |
| 2026-04-25 04:13 | 21.36856 | 82.97444 | 40877 ft | 534 kts | 116° |
| 2026-04-25 04:13 | 21.34022 | 83.04808 | 40873 ft | 534 kts | 116° |
| 2026-04-25 04:14 | 21.31189 | 83.12163 | 40866 ft | 533 kts | 117° |
| 2026-04-25 04:14 | 21.28352 | 83.19508 | 40877 ft | 533 kts | 117° |
| 2026-04-25 04:15 | 21.25510 | 83.26851 | 40881 ft | 533 kts | 117° |
| 2026-04-25 04:15 | 21.22663 | 83.34192 | 40878 ft | 533 kts | 117° |
| 2026-04-25 04:16 | 21.19813 | 83.41532 | 40879 ft | 533 kts | 117° |
| 2026-04-25 04:16 | 21.16962 | 83.48861 | 40876 ft | 533 kts | 117° |
| 2026-04-25 04:17 | 21.14105 | 83.56199 | 40876 ft | 533 kts | 117° |
| 2026-04-25 04:17 | 21.11261 | 83.63490 | 40873 ft | 533 kts | 117° |
| 2026-04-25 04:18 | 21.08397 | 83.70820 | 40873 ft | 533 kts | 117° |
| 2026-04-25 04:18 | 21.05526 | 83.78162 | 40873 ft | 533 kts | 117° |
| 2026-04-25 04:19 | 21.02660 | 83.85483 | 40858 ft | 533 kts | 117° |
| 2026-04-25 04:19 | 20.99792 | 83.92800 | 40870 ft | 533 kts | 117° |
| 2026-04-25 04:20 | 20.96914 | 84.00127 | 40873 ft | 533 kts | 117° |
| 2026-04-25 04:20 | 20.94032 | 84.07456 | 40875 ft | 534 kts | 117° |
| 2026-04-25 04:21 | 20.91150 | 84.14775 | 40876 ft | 534 kts | 117° |
| 2026-04-25 04:21 | 20.88266 | 84.22089 | 40874 ft | 534 kts | 117° |
| 2026-04-25 04:22 | 20.85381 | 84.29393 | 40863 ft | 534 kts | 117° |
| 2026-04-25 04:22 | 20.82488 | 84.36708 | 40881 ft | 534 kts | 117° |
| 2026-04-25 04:23 | 20.79595 | 84.44012 | 40881 ft | 534 kts | 117° |
| 2026-04-25 04:23 | 20.76713 | 84.51277 | 40882 ft | 534 kts | 117° |
| 2026-04-25 04:24 | 20.73809 | 84.58588 | 40885 ft | 534 kts | 117° |
| 2026-04-25 04:24 | 20.70904 | 84.65890 | 40883 ft | 534 kts | 117° |
| 2026-04-25 04:25 | 20.67999 | 84.73189 | 40889 ft | 533 kts | 117° |
| 2026-04-25 04:25 | 20.65086 | 84.80487 | 40891 ft | 533 kts | 117° |
| 2026-04-25 04:26 | 20.62174 | 84.87770 | 40891 ft | 533 kts | 117° |
| 2026-04-25 04:26 | 20.59260 | 84.95055 | 40888 ft | 533 kts | 117° |
| 2026-04-25 04:27 | 20.56338 | 85.02349 | 40892 ft | 533 kts | 117° |
| 2026-04-25 04:27 | 20.53418 | 85.09622 | 40891 ft | 534 kts | 117° |
| 2026-04-25 04:28 | 20.50492 | 85.16903 | 40880 ft | 534 kts | 117° |
| 2026-04-25 04:28 | 20.47562 | 85.24184 | 40875 ft | 534 kts | 117° |
| 2026-04-25 04:29 | 20.44629 | 85.31464 | 40877 ft | 534 kts | 117° |
| 2026-04-25 04:29 | 20.41694 | 85.38738 | 40872 ft | 534 kts | 117° |
| 2026-04-25 04:30 | 20.38759 | 85.46002 | 40873 ft | 532 kts | 117° |
| 2026-04-25 04:30 | 20.35849 | 85.53196 | 40879 ft | 531 kts | 117° |
| 2026-04-25 04:31 | 20.32917 | 85.60429 | 40873 ft | 531 kts | 117° |
| 2026-04-25 04:31 | 20.29982 | 85.67657 | 40881 ft | 531 kts | 117° |
| 2026-04-25 04:32 | 20.27044 | 85.74890 | 40885 ft | 531 kts | 117° |
| 2026-04-25 04:32 | 20.24105 | 85.82115 | 40884 ft | 531 kts | 117° |
| 2026-04-25 04:33 | 20.21357 | 85.89428 | 40889 ft | 533 kts | 114° |
| 2026-04-25 04:33 | 20.18747 | 85.96814 | 40880 ft | 533 kts | 114° |
| 2026-04-25 04:34 | 20.16109 | 86.04193 | 40879 ft | 533 kts | 115° |
| 2026-04-25 04:34 | 20.13438 | 86.11552 | 40877 ft | 533 kts | 115° |
| 2026-04-25 04:35 | 20.10758 | 86.18893 | 40886 ft | 533 kts | 115° |
| 2026-04-25 04:35 | 20.08536 | 86.24996 | 40881 ft | 533 kts | 115° |